Route Details

Aircraft Information
Group: North America Fleet
Types: B738, B752, B762, B763
Route Data
Distance: 277nm
Duration: 1h 30m
Origin METAR: KCVG 010552Z 01005KT 10SM BKN110 M06/M12 A3031 RMK AO2 SLP272 60000 T10561117 11033 21056 53005
Dest. METAR: KRFD 010554Z 18003KT 10SM CLR M19/M22 A3036 RMK AO2 SLP298 4/007 T11891222 11150 21189 411281239 58004
Freight Data
(for Feb 1, 2023)
Load Factor:
40%
Manifested Cargo: 27,662lbs
Financial History
Total Freight: 438,412lbs
Average Load: 0lbs/flt
Fuel Used: 55,515lbs
Avg. Fuel Used: 0lbs/flt
Fuel Expense: $29,435
Avg. Fuel Expense: $0
Avg. Fuel Cost: $0/lbs
Total Gross Income: $1,078,494
Pilot Pay: $884
Total Expenses: $179,336
Total Revenue: $868,127
Average Revenue: $0

Capitol Logistics 339




KCVG
Cincinnati/Northern Kentucky International Airport
Covington, Kentucky
KRFD
Chicago/Rockford International Airport
Rockford, Illinois

Activity Log

Date Flight Route Aircraft Duration
10/14/2022 CPX339 LOVEY6 CADIZ JOT B763 1h 07m
08/30/2022 CPX339 LOVEY6 LOVEY DCT VHP DCT JOT DCT B763 1h 03m
07/19/2022 CPX339 Not Available B752 1h 13m
07/02/2022 CPX297 LOVEY6 LOVEY VHP JOT B762 0h 55m
05/07/2022 CPX297 LOVEY6 CADIZ JOT B752 1h 05m
03/28/2022 CPX297 JBNCH5 MIE NUKIE JOT B763 1h 19m